Time;durP1;ratioP1;P1;durP2;ratioP2;P2;SDS_P1;SDS_P2;PMS_P1;PMS_P2;Temp;Humidity;BMP_temperature;BMP_pressure;BME280_temperature;BME280_humidity;BME280_pressure;Samples;Min_cycle;Max_cycle;Signal;HPM_P1;HPM_P2
2020/12/03 00:01:30;;;;;;;9.60;3.75;;;20.90;43.30;;;;;;5073483;28;20083;-82
2020/12/03 00:04:11;;;;;;;12.48;4.95;;;20.90;43.30;;;;;;5083740;28;20069;-79
2020/12/03 00:06:42;;;;;;;7.53;4.13;;;20.90;43.30;;;;;;5062321;28;20040;-80
2020/12/03 00:09:10;;;;;;;10.45;4.65;;;20.90;43.30;;;;;;5091238;28;20050;-77
2020/12/03 00:11:40;;;;;;;8.52;3.78;;;20.90;43.40;;;;;;5077100;28;20043;-76
2020/12/03 00:14:06;;;;;;;10.07;4.70;;;20.90;43.40;;;;;;5054066;28;20052;-76
2020/12/03 00:16:33;;;;;;;3.40;1.75;;;20.90;43.40;;;;;;5077827;28;20123;-76
2020/12/03 00:18:58;;;;;;;9.95;4.07;;;20.80;43.30;;;;;;5075642;28;20149;-76
2020/12/03 00:21:35;;;;;;;12.25;4.88;;;20.80;43.40;;;;;;5096952;28;20481;-78
2020/12/03 00:24:01;;;;;;;4.88;2.42;;;20.80;43.30;;;;;;5074046;28;20035;-76
2020/12/03 00:26:28;;;;;;;9.15;3.75;;;20.80;43.40;;;;;;5076331;28;20048;-77
2020/12/03 00:28:54;;;;;;;8.60;4.15;;;20.80;43.40;;;;;;5074471;28;20402;-79
2020/12/03 00:31:19;;;;;;;5.93;1.80;;;20.80;43.40;;;;;;5091214;28;20032;-77
2020/12/03 00:33:45;;;;;;;9.73;3.80;;;20.80;43.40;;;;;;5089786;28;20110;-79
2020/12/03 00:36:10;;;;;;;8.90;2.78;;;20.80;43.40;;;;;;5073143;28;20042;-79
2020/12/03 00:38:36;;;;;;;6.50;2.03;;;20.70;43.40;;;;;;5097637;28;20020;-79
2020/12/03 00:41:02;;;;;;;10.07;3.97;;;20.70;43.40;;;;;;5100566;28;20554;-76
2020/12/03 00:43:27;;;;;;;9.10;2.90;;;20.70;43.50;;;;;;5093159;28;20518;-75
2020/12/03 00:45:53;;;;;;;9.15;3.58;;;20.70;43.40;;;;;;5082432;28;20528;-77
2020/12/03 00:48:19;;;;;;;8.98;3.80;;;20.70;43.50;;;;;;5095475;28;20103;-76
2020/12/03 00:50:45;;;;;;;12.82;4.28;;;20.70;43.50;;;;;;5089440;28;20040;-76
2020/12/03 00:53:11;;;;;;;12.10;3.33;;;20.70;43.60;;;;;;5094623;28;20028;-76
2020/12/03 00:55:37;;;;;;;10.20;2.97;;;20.70;43.60;;;;;;5097023;28;20080;-77
2020/12/03 00:58:03;;;;;;;9.77;4.60;;;20.60;43.50;;;;;;5095584;28;20024;-76
2020/12/03 01:00:29;;;;;;;8.60;3.22;;;20.60;43.50;;;;;;5073176;28;20028;-76
2020/12/03 01:02:55;;;;;;;9.55;3.97;;;20.60;43.50;;;;;;5095059;28;20039;-76
2020/12/03 01:05:20;;;;;;;13.13;5.60;;;20.70;43.60;;;;;;5094471;28;20047;-77
2020/12/03 01:07:46;;;;;;;10.43;5.43;;;20.60;43.50;;;;;;5092123;28;20506;-76
2020/12/03 01:10:15;;;;;;;7.00;2.90;;;20.60;43.60;;;;;;5095845;28;20077;-76
2020/12/03 01:12:41;;;;;;;18.33;5.28;;;20.60;43.50;;;;;;5096932;28;20050;-76
2020/12/03 01:15:07;;;;;;;11.88;3.90;;;20.60;43.50;;;;;;5096115;28;20071;-76
2020/12/03 01:17:32;;;;;;;0.95;0.60;;;20.60;43.50;;;;;;5096734;28;20029;-76
2020/12/03 01:19:58;;;;;;;9.18;4.20;;;20.60;43.40;;;;;;5092968;28;20024;-69
2020/12/03 01:22:23;;;;;;;9.88;4.22;;;20.50;43.30;;;;;;5096056;28;21089;-68
2020/12/03 01:24:49;;;;;;;14.45;5.10;;;20.50;43.30;;;;;;5080553;28;20073;-68
2020/12/03 01:27:15;;;;;;;11.63;5.47;;;20.60;43.30;;;;;;5091848;28;20011;-68
2020/12/03 01:29:40;;;;;;;9.63;4.97;;;20.50;43.40;;;;;;5097706;28;20058;-68
2020/12/03 01:32:06;;;;;;;6.80;3.38;;;20.50;43.30;;;;;;5097016;28;20077;-69
2020/12/03 01:34:32;;;;;;;5.20;2.45;;;20.50;43.30;;;;;;5069937;28;20024;-67
2020/12/03 01:36:58;;;;;;;10.82;5.10;;;20.50;43.30;;;;;;5087282;28;20060;-67
2020/12/03 01:39:23;;;;;;;14.75;5.38;;;20.50;43.30;;;;;;5098133;28;20027;-67
2020/12/03 01:45:48;;;;;;;2.67;0.60;;;20.50;43.40;;;;;;5083699;28;20039;-67
2020/12/03 01:48:48;;;;;;;9.52;4.13;;;20.50;43.40;;;;;;5091200;28;20024;-67
2020/12/03 01:51:40;;;;;;;8.18;3.25;;;20.50;43.40;;;;;;5095253;28;20043;-66
2020/12/03 01:54:13;;;;;;;13.07;5.97;;;20.50;43.40;;;;;;4982147;28;20121;-67
2020/12/03 01:56:59;;;;;;;8.88;3.95;;;20.50;44.10;;;;;;4995423;28;20622;-67
2020/12/03 01:59:25;;;;;;;;;;;20.50;43.40;;;;;;4996380;28;20145;-77
2020/12/03 02:01:51;;;;;;;13.63;4.55;;;20.50;43.70;;;;;;4980402;28;19913;-77
2020/12/03 02:04:17;;;;;;;12.82;4.00;;;20.40;43.20;;;;;;4975532;28;20471;-77
2020/12/03 02:06:42;;;;;;;12.25;5.40;;;20.50;43.40;;;;;;4995977;28;20048;-76
2020/12/03 02:09:09;;;;;;;6.97;2.97;;;20.50;43.50;;;;;;5000641;28;20173;-77
2020/12/03 02:11:35;;;;;;;9.45;5.25;;;20.50;43.50;;;;;;4981396;28;20034;-78
2020/12/03 02:14:08;;;;;;;12.70;4.75;;;20.40;43.40;;;;;;4977013;28;20100;-76
2020/12/03 02:16:40;;;;;;;11.43;4.93;;;20.40;43.50;;;;;;4990674;28;20542;-68
2020/12/03 02:19:29;;;;;;;14.25;5.18;;;20.40;43.40;;;;;;4993548;28;20041;-68
2020/12/03 02:22:02;;;;;;;10.05;4.75;;;20.40;43.50;;;;;;4991384;28;20065;-67
2020/12/03 02:24:32;;;;;;;12.95;4.72;;;20.40;43.50;;;;;;4990893;28;20026;-67
2020/12/03 02:26:57;;;;;;;7.60;3.15;;;20.40;43.50;;;;;;4977891;28;20030;-67
2020/12/03 02:29:32;;;;;;;11.50;3.60;;;20.40;43.50;;;;;;4969598;28;20129;-69
2020/12/03 02:32:17;;;;;;;10.95;4.25;;;20.40;43.60;;;;;;5065029;28;20466;-68
2020/12/03 02:34:43;;;;;;;6.53;2.70;;;20.40;43.40;;;;;;5068681;28;20150;-67
2020/12/03 02:37:08;;;;;;;13.23;4.32;;;20.40;43.50;;;;;;5053089;28;20027;-67
2020/12/03 02:39:35;;;;;;;11.43;4.72;;;20.30;43.50;;;;;;5074958;28;21685;-67
2020/12/03 02:42:01;;;;;;;5.85;2.05;;;20.30;43.50;;;;;;5067152;28;20033;-68
2020/12/03 02:44:27;;;;;;;9.63;3.88;;;20.30;43.60;;;;;;5063091;28;20412;-67
2020/12/03 02:46:52;;;;;;;9.82;4.25;;;20.30;43.60;;;;;;5039839;28;20035;-67
2020/12/03 02:49:18;;;;;;;12.45;3.97;;;20.30;43.60;;;;;;5054321;28;20029;-67
2020/12/03 02:51:43;;;;;;;9.88;3.78;;;20.30;43.60;;;;;;5065992;28;20040;-67
2020/12/03 02:54:10;;;;;;;9.32;3.40;;;20.30;43.70;;;;;;5052038;28;20402;-67
2020/12/03 02:56:36;;;;;;;6.65;3.03;;;20.30;43.70;;;;;;5052813;28;20036;-67
2020/12/03 02:59:02;;;;;;;16.02;4.65;;;20.30;43.70;;;;;;5072119;28;20035;-77
2020/12/03 03:01:27;;;;;;;5.70;1.45;;;20.30;43.80;;;;;;5072841;28;20056;-78
2020/12/03 03:03:53;;;;;;;11.10;2.45;;;20.30;43.70;;;;;;5078799;28;20055;-75
2020/12/03 03:06:18;;;;;;;8.90;4.18;;;20.30;43.70;;;;;;5058425;28;20094;-76
2020/12/03 03:08:44;;;;;;;10.40;4.30;;;20.30;43.60;;;;;;5073057;28;20161;-76
2020/12/03 03:11:18;;;;;;;9.73;3.60;;;20.30;43.60;;;;;;5081746;28;20033;-77
2020/12/03 03:13:44;;;;;;;13.07;4.53;;;20.30;43.60;;;;;;5087950;28;20529;-77
2020/12/03 03:16:10;;;;;;;7.65;3.65;;;20.30;43.60;;;;;;5091267;28;20047;-77
2020/12/03 03:18:35;;;;;;;8.50;3.40;;;20.30;43.60;;;;;;5098062;28;20019;-78
2020/12/03 03:21:01;;;;;;;10.43;3.72;;;20.30;43.60;;;;;;5097603;28;20398;-77
2020/12/03 03:23:26;;;;;;;5.35;2.50;;;20.30;43.60;;;;;;5093199;28;20028;-67
2020/12/03 03:25:52;;;;;;;7.80;2.60;;;20.30;43.60;;;;;;5093310;28;20034;-67
2020/12/03 03:28:17;;;;;;;9.45;3.78;;;20.30;43.60;;;;;;5099213;28;20430;-67
2020/12/03 03:30:51;;;;;;;9.27;3.83;;;20.30;43.60;;;;;;5096054;28;20028;-67
2020/12/03 03:33:16;;;;;;;9.77;3.40;;;20.30;43.60;;;;;;5080802;28;20055;-66
2020/12/03 03:35:42;;;;;;;7.78;3.28;;;20.30;43.60;;;;;;5090982;28;20492;-67
2020/12/03 03:38:07;;;;;;;11.65;3.53;;;20.30;44.30;;;;;;5092364;28;20034;-77
2020/12/03 03:40:33;;;;;;;12.77;3.97;;;20.30;43.50;;;;;;5100222;28;20128;-79
2020/12/03 03:42:58;;;;;;;5.60;1.77;;;20.30;43.60;;;;;;5101266;28;20020;-79
2020/12/03 03:45:24;;;;;;;7.65;3.00;;;20.30;43.50;;;;;;5100255;28;20038;-78
2020/12/03 03:47:50;;;;;;;0.50;0.45;;;20.30;43.70;;;;;;5098188;28;20258;-79
2020/12/03 03:53:38;;;;;;;10.80;3.50;;;20.20;43.50;;;;;;5094884;28;20035;-78
2020/12/03 03:56:03;;;;;;;9.60;3.00;;;20.20;43.40;;;;;;5095566;28;20028;-77
2020/12/03 03:58:29;;;;;;;16.20;4.05;;;20.20;43.50;;;;;;5096524;28;20035;-76
2020/12/03 04:00:55;;;;;;;12.63;4.22;;;20.20;43.50;;;;;;5092862;28;20043;-76
2020/12/03 04:03:20;;;;;;;9.32;3.55;;;20.20;43.60;;;;;;5094151;28;20115;-77
2020/12/03 04:05:50;;;;;;;10.68;3.83;;;20.10;43.50;;;;;;5095570;28;20043;-76
2020/12/03 04:08:16;;;;;;;4.28;0.32;;;20.10;43.40;;;;;;5093643;28;20028;-78
2020/12/03 04:10:42;;;;;;;2.65;1.27;;;20.10;43.40;;;;;;5095231;28;20580;-78
2020/12/03 04:13:07;;;;;;;9.70;3.97;;;20.10;43.50;;;;;;5098906;28;20074;-76
2020/12/03 04:15:33;;;;;;;14.55;4.47;;;20.00;43.30;;;;;;5088302;28;21550;-77
2020/12/03 04:17:59;;;;;;;3.75;1.95;;;20.00;43.30;;;;;;5092359;28;20024;-77
2020/12/03 04:20:24;;;;;;;12.32;3.80;;;20.00;43.30;;;;;;5093990;28;20024;-77
2020/12/03 04:22:50;;;;;;;10.45;4.35;;;20.00;43.50;;;;;;5099487;28;20305;-77
2020/12/03 04:25:15;;;;;;;6.15;2.28;;;20.00;43.50;;;;;;5086906;28;20080;-77
2020/12/03 04:27:41;;;;;;;11.23;3.92;;;20.00;43.60;;;;;;5077232;28;20024;-77
2020/12/03 04:30:07;;;;;;;10.45;3.95;;;20.00;43.50;;;;;;5095123;28;20040;-78
2020/12/03 04:32:33;;;;;;;5.40;2.33;;;20.00;43.40;;;;;;5074947;28;20079;-77
2020/12/03 04:34:58;;;;;;;12.15;3.60;;;20.00;43.60;;;;;;5076445;28;20063;-78
2020/12/03 04:37:24;;;;;;;10.57;4.10;;;20.00;43.60;;;;;;5091108;28;20129;-78
2020/12/03 04:39:50;;;;;;;9.25;2.42;;;19.90;43.60;;;;;;5088950;28;20085;-79
2020/12/03 04:42:23;;;;;;;12.80;3.72;;;19.90;43.60;;;;;;5095617;28;20099;-79
2020/12/03 04:44:50;;;;;;;11.13;3.67;;;20.00;43.60;;;;;;5068901;28;20051;-79
2020/12/03 04:47:28;;;;;;;9.48;3.33;;;20.00;43.70;;;;;;5070834;28;21474;-68
2020/12/03 04:50:28;;;;;;;5.55;2.85;;;20.00;43.60;;;;;;5075176;28;20123;-68
2020/12/03 04:53:11;;;;;;;8.88;3.35;;;20.00;43.60;;;;;;5040326;28;20704;-68
2020/12/03 04:55:50;;;;;;;9.43;2.13;;;20.00;43.60;;;;;;5021301;28;20069;-68
2020/12/03 04:58:23;;;;;;;10.85;3.38;;;20.00;43.60;;;;;;5021623;28;20029;-68
2020/12/03 05:01:04;;;;;;;10.40;3.60;;;20.00;43.50;;;;;;5009466;28;20025;-68
2020/12/03 05:04:01;;;;;;;1.30;0.73;;;20.10;43.70;;;;;;5043567;28;20048;-68
2020/12/03 05:06:54;;;;;;;1.90;0.85;;;20.00;43.60;;;;;;5023173;28;20036;-68
2020/12/03 05:09:42;;;;;;;3.75;0.93;;;20.00;43.60;;;;;;5023354;28;20024;-68
2020/12/03 05:12:13;;;;;;;1.60;0.90;;;20.10;43.50;;;;;;5030740;28;20036;-68
2020/12/03 05:14:48;;;;;;;1.60;0.88;;;20.10;43.50;;;;;;5020006;28;20166;-68
2020/12/03 05:17:43;;;;;;;2.28;0.80;;;20.20;43.40;;;;;;5009165;28;20044;-68
2020/12/03 05:20:37;;;;;;;1.65;0.80;;;20.20;43.30;;;;;;5022677;28;20043;-68
2020/12/03 05:23:07;;;;;;;1.00;0.77;;;20.20;43.20;;;;;;5020346;28;20576;-68
2020/12/03 05:25:33;;;;;;;1.83;0.82;;;20.30;43.10;;;;;;5021291;28;20112;-68
2020/12/03 05:28:01;;;;;;;1.52;0.63;;;20.30;43.10;;;;;;5040837;28;20139;-68
2020/12/03 05:30:26;;;;;;;2.15;0.93;;;20.30;43.10;;;;;;5061588;28;22190;-68
2020/12/03 05:32:52;;;;;;;7.63;0.68;;;20.40;43.00;;;;;;5092206;28;20139;-77
2020/12/03 05:35:18;;;;;;;2.08;0.80;;;20.40;43.00;;;;;;5086863;28;20490;-77
2020/12/03 05:37:44;;;;;;;0.85;0.70;;;20.50;42.90;;;;;;5085750;28;20085;-77
2020/12/03 05:40:19;;;;;;;2.00;0.70;;;20.50;42.90;;;;;;5070919;28;20024;-76
2020/12/03 05:42:45;;;;;;;2.47;0.95;;;20.60;42.80;;;;;;5093704;28;20020;-68
2020/12/03 05:45:22;;;;;;;4.10;1.00;;;20.60;42.70;;;;;;5089148;28;20037;-68
2020/12/03 05:47:49;;;;;;;1.05;0.80;;;20.60;42.60;;;;;;5077968;28;20024;-68
2020/12/03 05:50:16;;;;;;;0.50;0.50;;;20.60;42.50;;;;;;5072994;28;20023;-68
2020/12/03 05:53:02;;;;;;;1.60;1.00;;;20.70;42.60;;;;;;5071669;28;20507;-68
2020/12/03 05:55:28;;;;;;;0.98;0.90;;;20.70;42.50;;;;;;5071449;28;20027;-68
2020/12/03 05:57:54;;;;;;;2.28;0.70;;;20.70;42.40;;;;;;5089794;28;20032;-68
2020/12/03 06:00:24;;;;;;;1.38;0.65;;;20.70;42.40;;;;;;5095600;28;20050;-68
2020/12/03 06:03:00;;;;;;;2.05;0.80;;;20.80;42.30;;;;;;5088199;28;20555;-68
2020/12/03 06:05:58;;;;;;;1.33;0.63;;;20.80;42.30;;;;;;5054419;28;20036;-68
2020/12/03 06:08:35;;;;;;;3.25;0.95;;;20.80;42.20;;;;;;5089056;28;20049;-76
2020/12/03 06:11:36;;;;;;;3.22;1.30;;;20.80;42.30;;;;;;5091599;28;20548;-78
2020/12/03 06:14:38;;;;;;;4.72;0.80;;;20.90;42.20;;;;;;5079211;28;20080;-78
2020/12/03 06:17:20;;;;;;;1.55;0.90;;;20.90;42.20;;;;;;5084602;28;20063;-79
2020/12/03 06:20:05;;;;;;;2.58;0.88;;;20.90;42.20;;;;;;5074316;28;20028;-68
2020/12/03 06:22:37;;;;;;;1.70;0.80;;;20.80;42.20;;;;;;5076164;28;20020;-69
2020/12/03 06:25:18;;;;;;;1.15;0.95;;;20.90;42.20;;;;;;5069904;28;20019;-78
2020/12/03 06:28:22;;;;;;;5.30;0.95;;;20.90;42.20;;;;;;5094311;28;20028;-79
2020/12/03 06:30:56;;;;;;;5.43;1.00;;;20.90;42.20;;;;;;5057752;28;20034;-78
2020/12/03 06:33:45;;;;;;;2.63;0.63;;;20.90;42.20;;;;;;5069650;28;20020;-77
2020/12/03 06:36:39;;;;;;;2.17;1.05;;;20.90;42.10;;;;;;5058413;28;20043;-77
2020/12/03 06:39:37;;;;;;;1.17;0.90;;;20.90;42.10;;;;;;5053293;28;20099;-80
2020/12/03 06:42:15;;;;;;;3.65;0.80;;;20.90;42.20;;;;;;5077223;28;21101;-79
2020/12/03 06:44:50;;;;;;;3.80;0.77;;;20.90;42.20;;;;;;5062520;28;20090;-68
2020/12/03 06:47:48;;;;;;;3.20;0.95;;;20.90;42.20;;;;;;5062918;28;20035;-68
2020/12/03 06:50:41;;;;;;;2.15;1.25;;;20.90;42.10;;;;;;5055656;28;20036;-68
2020/12/03 06:53:29;;;;;;;2.28;1.10;;;20.90;42.20;;;;;;5094413;28;20032;-68
2020/12/03 06:56:32;;;;;;;2.90;1.10;;;20.90;42.10;;;;;;5092209;28;20036;-69
2020/12/03 06:59:22;;;;;;;1.15;0.93;;;20.90;42.10;;;;;;5091727;28;20510;-69
2020/12/03 07:02:02;;;;;;;1.77;0.93;;;21.00;42.20;;;;;;5090396;28;20077;-68
2020/12/03 07:05:02;;;;;;;2.35;1.10;;;20.90;42.10;;;;;;5074121;28;20028;-68
2020/12/03 07:08:03;;;;;;;3.42;1.05;;;20.90;42.20;;;;;;5074009;28;20027;-77
2020/12/03 07:10:41;;;;;;;1.40;0.85;;;20.90;42.20;;;;;;5010729;28;20113;-77
2020/12/03 07:13:22;;;;;;;1.25;1.15;;;20.90;42.20;;;;;;5010609;28;20034;-81
2020/12/03 07:16:00;;;;;;;1.27;0.80;;;20.90;42.20;;;;;;5003475;28;20201;-76
2020/12/03 07:18:35;;;;;;;0.73;0.70;;;20.90;42.30;;;;;;5010435;28;20550;-78
2020/12/03 07:21:15;;;;;;;1.48;0.95;;;20.90;42.30;;;;;;4977533;28;20050;-80
2020/12/03 07:23:53;;;;;;;1.80;0.90;;;20.90;42.30;;;;;;4993927;28;20076;-80
2020/12/03 07:26:43;;;;;;;1.67;1.05;;;20.90;42.30;;;;;;5007796;28;20050;-78
2020/12/03 07:29:18;;;;;;;1.63;1.02;;;20.90;42.30;;;;;;5009706;28;20038;-81
2020/12/03 07:31:45;;;;;;;1.25;0.85;;;20.90;42.40;;;;;;4998220;28;20041;-77
2020/12/03 07:34:14;;;;;;;1.45;1.02;;;20.90;42.40;;;;;;5001173;28;20030;-67
2020/12/03 07:36:59;;;;;;;4.07;1.30;;;20.90;42.30;;;;;;5014236;28;20548;-68
2020/12/03 07:39:30;;;;;;;1.30;1.03;;;20.90;42.40;;;;;;5012593;28;20402;-67
2020/12/03 07:42:04;;;;;;;3.38;0.90;;;21.00;42.40;;;;;;4997037;28;20029;-68
2020/12/03 07:44:37;;;;;;;0.68;0.68;;;21.00;42.40;;;;;;5033715;28;20140;-67
2020/12/03 07:47:21;;;;;;;1.75;0.93;;;21.00;42.40;;;;;;5081565;28;20449;-67
2020/12/03 07:50:06;;;;;;;1.85;1.00;;;21.00;42.30;;;;;;5095713;28;20032;-67
2020/12/03 07:52:35;;;;;;;1.30;0.93;;;21.00;42.30;;;;;;5097565;28;20077;-67
2020/12/03 07:55:19;;;;;;;2.35;0.82;;;21.00;42.30;;;;;;5079488;28;20032;-67
2020/12/03 07:57:45;;;;;;;2.15;1.00;;;21.00;42.30;;;;;;5094094;28;20023;-67
2020/12/03 08:00:33;;;;;;;5.18;1.23;;;21.00;42.30;;;;;;5094207;28;21498;-67
2020/12/03 08:03:36;;;;;;;1.67;0.70;;;21.00;42.30;;;;;;5095894;28;20016;-67
2020/12/03 08:06:31;;;;;;;1.13;0.70;;;21.00;42.30;;;;;;5088672;28;20031;-67
2020/12/03 08:09:00;;;;;;;3.22;1.25;;;21.00;42.40;;;;;;5064929;28;20024;-67
2020/12/03 08:11:50;;;;;;;2.40;1.20;;;21.00;42.30;;;;;;5090692;28;20027;-66
2020/12/03 08:14:37;;;;;;;1.05;0.82;;;21.00;42.40;;;;;;5100303;28;20040;-77
2020/12/03 08:17:26;;;;;;;1.52;1.10;;;20.90;42.30;;;;;;5104306;28;20040;-75
2020/12/03 08:20:04;;;;;;;1.63;0.90;;;20.90;42.20;;;;;;5092529;28;20043;-76
2020/12/03 08:22:42;;;;;;;4.82;1.20;;;20.90;42.20;;;;;;5100297;28;20116;-67
2020/12/03 08:25:12;;;;;;;1.13;0.77;;;20.90;42.30;;;;;;5079648;28;20039;-75
2020/12/03 08:31:00;;;;;;;1.05;0.70;;;20.90;42.30;;;;;;5094058;28;20150;-66
2020/12/03 08:33:35;;;;;;;1.13;0.93;;;20.90;42.20;;;;;;5091757;28;20122;-67
2020/12/03 08:36:05;;;;;;;0.97;0.70;;;20.90;42.30;;;;;;5093642;28;20101;-67
2020/12/03 08:38:33;;;;;;;1.20;0.52;;;20.90;42.30;;;;;;5075984;28;20094;-68
2020/12/03 08:41:05;;;;;;;1.25;0.80;;;20.80;42.20;;;;;;5089300;28;20028;-67
2020/12/03 08:43:33;;;;;;;1.67;1.10;;;20.80;42.20;;;;;;5074845;28;20032;-78
2020/12/03 08:46:05;;;;;;;2.72;1.00;;;20.80;42.20;;;;;;5063952;28;20036;-78
2020/12/03 08:48:36;;;;;;;0.88;0.63;;;20.80;42.80;;;;;;5087850;28;20036;-78
2020/12/03 08:51:04;;;;;;;0.98;0.60;;;20.70;42.20;;;;;;5078686;28;20038;-77
2020/12/03 08:53:31;;;;;;;1.30;1.00;;;20.80;42.20;;;;;;5089314;28;20424;-79
2020/12/03 08:56:11;;;;;;;1.50;0.90;;;20.70;42.10;;;;;;5080884;28;20047;-67
2020/12/03 08:58:36;;;;;;;2.55;0.90;;;20.70;42.20;;;;;;5083027;28;20035;-66
2020/12/03 09:01:02;;;;;;;0.82;0.82;;;20.70;42.00;;;;;;5064428;28;20032;-67
2020/12/03 09:03:27;;;;;;;2.33;1.15;;;20.70;42.00;;;;;;5063198;28;20111;-67
2020/12/03 09:05:53;;;;;;;0.80;0.73;;;20.70;41.90;;;;;;5071497;28;20422;-67
2020/12/03 09:08:20;;;;;;;1.55;1.02;;;20.70;41.80;;;;;;5071795;28;20024;-67
2020/12/03 09:10:46;;;;;;;3.15;0.88;;;20.80;41.80;;;;;;5073477;28;20024;-67
2020/12/03 09:13:16;;;;;;;3.55;1.40;;;20.80;41.70;;;;;;5076065;28;20503;-67
2020/12/03 09:15:42;;;;;;;0.63;0.63;;;20.80;41.50;;;;;;5073871;28;20027;-66
2020/12/03 09:18:08;;;;;;;0.70;0.60;;;20.80;41.60;;;;;;5064148;28;20036;-67
2020/12/03 09:20:33;;;;;;;2.45;1.30;;;20.80;41.50;;;;;;5094842;28;20028;-67
2020/12/03 09:22:59;;;;;;;1.48;0.98;;;20.80;41.60;;;;;;5054055;28;20024;-67
2020/12/03 09:25:25;;;;;;;0.90;0.80;;;20.80;41.70;;;;;;5092705;28;20035;-67
2020/12/03 09:27:50;;;;;;;1.30;0.70;;;20.80;41.60;;;;;;5077108;28;20396;-67
2020/12/03 09:30:23;;;;;;;2.33;1.08;;;20.80;41.60;;;;;;5090662;28;20402;-67
2020/12/03 09:33:33;;;;;;;3.25;0.93;;;20.80;41.50;;;;;;5053731;28;20033;-67
2020/12/03 09:35:58;;;;;;;1.10;0.98;;;20.80;41.50;;;;;;5082409;28;20107;-68
2020/12/03 09:38:24;;;;;;;0.60;0.60;;;20.80;41.60;;;;;;5053075;28;20030;-68
2020/12/03 09:40:50;;;;;;;2.42;0.98;;;20.80;41.40;;;;;;5073197;28;20027;-67
2020/12/03 09:43:18;;;;;;;1.05;0.88;;;20.80;41.60;;;;;;5060432;28;20563;-67
2020/12/03 09:45:47;;;;;;;3.35;0.85;;;20.80;41.50;;;;;;5094425;28;20034;-68
2020/12/03 09:48:13;;;;;;;1.27;0.88;;;20.70;41.50;;;;;;5067064;28;20060;-67
2020/12/03 09:50:43;;;;;;;1.30;0.90;;;20.70;41.40;;;;;;5068806;28;21903;-68
2020/12/03 09:53:21;;;;;;;3.13;1.20;;;20.70;41.40;;;;;;5090227;28;20115;-67
2020/12/03 09:55:47;;;;;;;1.88;0.95;;;20.70;41.40;;;;;;5076377;28;20036;-67
2020/12/03 09:58:20;;;;;;;3.67;1.10;;;20.70;41.50;;;;;;5094705;28;20759;-67
2020/12/03 10:00:46;;;;;;;1.65;1.13;;;20.70;41.20;;;;;;5068907;28;20032;-67
2020/12/03 10:03:49;;;;;;;1.30;0.77;;;20.70;41.20;;;;;;5076251;28;20016;-67
2020/12/03 10:06:48;;;;;;;1.17;1.00;;;20.80;41.30;;;;;;5094938;28;20046;-67
2020/12/03 10:09:36;;;;;;;2.13;1.17;;;20.80;41.30;;;;;;5064612;28;20035;-67
2020/12/03 10:12:02;;;;;;;1.10;0.80;;;20.80;41.50;;;;;;5089804;28;20032;-67
2020/12/03 10:15:04;;;;;;;2.58;0.90;;;20.80;41.50;;;;;;5088925;28;20039;-67
2020/12/03 10:17:34;;;;;;;0.77;0.70;;;20.70;41.50;;;;;;5094752;28;20038;-67
2020/12/03 10:20:01;;;;;;;1.27;0.95;;;20.70;41.30;;;;;;5064176;28;20073;-68
2020/12/03 10:22:28;;;;;;;3.20;0.80;;;20.70;41.00;;;;;;5056757;28;20021;-67
2020/12/03 10:25:18;;;;;;;1.02;0.80;;;20.70;41.20;;;;;;5094140;28;20031;-66
2020/12/03 10:28:01;;;;;;;1.42;1.02;;;20.60;41.00;;;;;;5093829;28;20012;-66
2020/12/03 10:30:34;;;;;;;2.38;1.00;;;20.70;41.00;;;;;;5072637;28;20043;-66
2020/12/03 10:33:00;;;;;;;0.60;0.60;;;20.70;41.10;;;;;;5093453;28;20020;-67
2020/12/03 10:35:28;;;;;;;3.10;1.05;;;20.60;41.00;;;;;;5085038;28;20028;-74
2020/12/03 10:37:55;;;;;;;1.08;0.50;;;20.60;41.10;;;;;;5080889;28;20064;-75
2020/12/03 10:40:21;;;;;;;0.65;0.57;;;20.60;41.10;;;;;;5091211;28;20028;-67
2020/12/03 10:43:07;;;;;;;0.88;0.73;;;20.70;41.30;;;;;;5071631;28;20034;-67
2020/12/03 10:45:35;;;;;;;0.85;0.70;;;20.70;41.30;;;;;;5090643;28;20036;-67
2020/12/03 10:48:07;;;;;;;0.50;0.50;;;20.70;41.30;;;;;;5064627;28;20047;-75
2020/12/03 10:50:59;;;;;;;0.80;0.60;;;20.70;41.40;;;;;;5066537;28;20040;-74
2020/12/03 10:53:26;;;;;;;2.00;0.80;;;20.70;41.40;;;;;;5071007;28;20054;-67
2020/12/03 10:56:00;;;;;;;0.70;0.70;;;20.80;41.50;;;;;;5068871;28;20019;-67
2020/12/03 10:59:01;;;;;;;0.73;0.60;;;20.80;41.40;;;;;;5092607;28;20028;-67
2020/12/03 11:01:28;;;;;;;1.45;0.50;;;20.90;41.20;;;;;;5076849;28;20135;-67
2020/12/03 11:04:08;;;;;;;1.95;0.80;;;20.90;41.20;;;;;;5075719;28;20020;-66
2020/12/03 11:06:34;;;;;;;1.85;0.60;;;20.90;40.80;;;;;;5053065;28;20027;-66
2020/12/03 11:09:00;;;;;;;0.50;0.50;;;20.90;40.90;;;;;;5090526;28;20035;-67
2020/12/03 11:11:52;;;;;;;1.48;0.70;;;20.90;41.00;;;;;;5072625;28;20493;-67
2020/12/03 11:14:17;;;;;;;0.70;0.63;;;20.90;40.90;;;;;;5071838;28;20151;-67
2020/12/03 11:16:56;;;;;;;0.40;0.40;;;20.90;40.80;;;;;;5070818;28;20035;-67
2020/12/03 11:19:22;;;;;;;0.60;0.60;;;20.90;40.70;;;;;;5063743;28;20016;-67
2020/12/03 11:22:22;;;;;;;0.75;0.68;;;20.90;40.90;;;;;;5076359;28;20502;-66
2020/12/03 11:24:49;;;;;;;0.88;0.55;;;20.90;40.70;;;;;;5075761;28;20487;-67
2020/12/03 11:27:19;;;;;;;0.50;0.50;;;20.90;40.80;;;;;;5091793;28;20028;-67
2020/12/03 11:29:53;;;;;;;0.52;0.52;;;20.90;40.90;;;;;;5096364;28;20410;-67
2020/12/03 11:32:26;;;;;;;0.85;0.50;;;20.90;40.80;;;;;;5083344;28;20097;-67
2020/12/03 11:34:52;;;;;;;0.55;0.55;;;20.90;41.00;;;;;;5095367;28;20020;-67
2020/12/03 11:37:25;;;;;;;0.57;0.57;;;20.90;41.00;;;;;;5081030;28;20086;-76
2020/12/03 11:40:01;;;;;;;1.17;0.60;;;20.80;41.00;;;;;;5102055;28;20490;-67
2020/12/03 11:42:39;;;;;;;1.20;0.65;;;20.80;41.00;;;;;;5080547;28;20031;-67
2020/12/03 11:48:08;;;;;;;1.27;0.60;;;20.70;41.00;;;;;;5080858;28;20030;-67
2020/12/03 11:50:49;;;;;;;0.70;0.50;;;20.60;41.00;;;;;;5093471;28;21823;-67
2020/12/03 11:53:19;;;;;;;0.50;0.50;;;20.60;41.00;;;;;;5081989;28;20020;-67
2020/12/03 11:55:45;;;;;;;1.70;0.50;;;20.60;41.10;;;;;;5092868;28;20107;-76
2020/12/03 11:58:10;;;;;;;0.63;0.60;;;20.50;41.00;;;;;;5090859;28;20099;-76
2020/12/03 12:00:36;;;;;;;1.20;0.50;;;20.50;41.10;;;;;;5092315;28;20406;-75
2020/12/03 12:03:08;;;;;;;3.85;0.70;;;20.50;41.30;;;;;;5076124;28;20098;-76
2020/12/03 12:10:54;;;;;;;0.30;0.30;;;20.40;41.40;;;;;;5089250;28;20028;-76
2020/12/03 12:13:20;;;;;;;0.63;0.50;;;20.50;41.40;;;;;;5079239;28;20506;-75
2020/12/03 12:15:46;;;;;;;0.50;0.50;;;20.40;41.40;;;;;;5087264;28;20035;-75
2020/12/03 12:18:11;;;;;;;0.30;0.30;;;20.40;41.50;;;;;;5085833;28;20031;-75
2020/12/03 12:20:38;;;;;;;0.30;0.30;;;20.40;41.40;;;;;;5094849;28;20024;-75
2020/12/03 12:23:03;;;;;;;0.40;0.40;;;20.40;41.40;;;;;;5092865;28;20030;-75
2020/12/03 12:25:29;;;;;;;0.40;0.40;;;20.40;41.50;;;;;;5071950;28;20052;-74
2020/12/03 12:27:54;;;;;;;0.20;0.20;;;20.50;41.60;;;;;;5092581;28;20023;-74
2020/12/03 12:30:20;;;;;;;0.70;0.43;;;20.40;41.50;;;;;;5091886;28;20186;-75
2020/12/03 12:32:45;;;;;;;0.85;0.45;;;20.40;41.50;;;;;;5067254;28;20024;-76
2020/12/03 12:35:14;;;;;;;0.73;0.30;;;20.40;41.50;;;;;;5091172;28;20036;-75
2020/12/03 12:37:40;;;;;;;0.40;0.30;;;20.40;41.40;;;;;;5088285;28;20498;-76
2020/12/03 12:40:05;;;;;;;2.03;0.50;;;20.40;41.60;;;;;;5072086;28;20051;-77
2020/12/03 12:42:31;;;;;;;0.22;0.20;;;20.40;41.60;;;;;;5091934;28;20069;-76
2020/12/03 12:44:57;;;;;;;0.40;0.20;;;20.40;41.70;;;;;;5071655;28;20085;-76
2020/12/03 12:47:23;;;;;;;0.73;0.57;;;20.50;41.80;;;;;;5075675;28;20032;-75
2020/12/03 12:49:49;;;;;;;0.40;0.28;;;20.40;41.80;;;;;;5087090;28;20449;-76
2020/12/03 12:52:18;;;;;;;0.70;0.30;;;20.40;41.80;;;;;;5095316;28;20036;-75
2020/12/03 12:54:44;;;;;;;0.55;0.25;;;20.50;41.90;;;;;;5083352;28;20051;-76
2020/12/03 12:57:09;;;;;;;0.43;0.30;;;20.40;41.90;;;;;;5096180;28;20032;-76
2020/12/03 12:59:41;;;;;;;0.70;0.40;;;20.40;41.80;;;;;;5095405;28;20023;-76
2020/12/03 13:02:06;;;;;;;0.13;0.13;;;20.40;41.90;;;;;;5093575;28;20066;-76
2020/12/03 13:04:32;;;;;;;0.43;0.30;;;20.40;41.70;;;;;;5104261;28;20082;-76
2020/12/03 13:06:59;;;;;;;0.60;0.50;;;20.40;41.80;;;;;;5106681;28;20376;-76
2020/12/03 13:09:30;;;;;;;0.52;0.20;;;20.40;41.80;;;;;;5081927;28;20961;-77
2020/12/03 13:11:56;;;;;;;1.23;0.57;;;20.40;41.70;;;;;;5099663;28;20023;-76
2020/12/03 13:14:25;;;;;;;0.30;0.30;;;20.40;42.40;;;;;;5104219;28;20035;-77
2020/12/03 13:16:51;;;;;;;0.32;0.32;;;20.40;41.80;;;;;;5082852;28;20604;-75
2020/12/03 13:19:17;;;;;;;1.00;0.50;;;20.40;41.70;;;;;;5076449;28;20036;-76
2020/12/03 13:21:42;;;;;;;0.30;0.30;;;20.40;41.80;;;;;;5089403;28;20043;-77
2020/12/03 13:27:30;;;;;;;0.55;0.32;;;20.30;41.50;;;;;;5102687;28;20055;-77
2020/12/03 13:33:18;;;;;;;1.00;0.40;;;20.40;41.50;;;;;;5090754;28;20129;-77
2020/12/03 13:35:43;;;;;;;0.30;0.30;;;20.40;41.60;;;;;;5092551;28;20023;-76
2020/12/03 13:38:09;;;;;;;0.30;0.30;;;20.40;41.50;;;;;;5090748;28;20463;-76